Time;durP1;ratioP1;P1;durP2;ratioP2;P2;SDS_P1;SDS_P2;PMS_P1;PMS_P2;Temp;Humidity;BMP_temperature;BMP_pressure;BME280_temperature;BME280_humidity;BME280_pressure;Samples;Min_cycle;Max_cycle;Signal;HPM_P1;HPM_P2
2022/12/07 00:01:38;;;;;;;20.02;10.95;;;;;;;;;;5111277;28;20051;-41
2022/12/07 00:04:05;;;;;;;20.27;10.98;;;;;;;;;;5110949;28;20534;-41
2022/12/07 00:06:42;;;;;;;18.50;10.88;;;;;;;;;;5111128;28;20019;-41
2022/12/07 00:09:10;;;;;;;17.65;9.88;;;;;;;;;;5110917;28;20028;-41
2022/12/07 00:11:37;;;;;;;26.27;14.98;;;;;;;;;;5095945;28;20453;-40
2022/12/07 00:14:05;;;;;;;27.65;14.80;;;;;;;;;;5092143;28;20430;-40
2022/12/07 00:16:32;;;;;;;22.75;13.18;;;;;;;;;;5091979;28;20056;-41
2022/12/07 00:18:58;;;;;;;22.02;13.00;;;;;;;;;;5091563;28;20040;-40
2022/12/07 00:21:26;;;;;;;20.88;11.98;;;;;;;;;;5092017;28;20024;-40
2022/12/07 00:23:53;;;;;;;20.02;11.30;;;;;;;;;;5097978;28;20439;-40
2022/12/07 00:26:21;;;;;;;21.63;11.57;;;;;;;;;;5111869;28;20469;-41
2022/12/07 00:28:52;;;;;;;20.27;11.88;;;;;;;;;;5111979;28;20073;-40
2022/12/07 00:31:19;;;;;;;17.40;10.10;;;;;;;;;;5111926;28;20020;-40
2022/12/07 00:33:46;;;;;;;18.58;10.13;;;;;;;;;;5111878;28;20102;-41
2022/12/07 00:36:13;;;;;;;19.33;10.68;;;;;;;;;;5111895;28;20041;-40
2022/12/07 00:38:39;;;;;;;18.25;10.88;;;;;;;;;;5103743;28;20395;-40
2022/12/07 00:41:07;;;;;;;17.40;10.27;;;;;;;;;;5095918;28;20436;-40
2022/12/07 00:43:33;;;;;;;18.00;9.73;;;;;;;;;;5111204;28;20114;-41
2022/12/07 00:45:59;;;;;;;16.52;9.40;;;;;;;;;;5111539;28;20031;-41
2022/12/07 00:48:26;;;;;;;14.60;8.35;;;;;;;;;;5111624;28;20623;-40
2022/12/07 00:50:52;;;;;;;17.00;10.48;;;;;;;;;;5109371;28;20736;-40
2022/12/07 00:53:18;;;;;;;17.23;9.88;;;;;;;;;;5111441;28;20024;-40
2022/12/07 00:55:45;;;;;;;16.48;8.57;;;;;;;;;;5109076;28;20023;-41
2022/12/07 00:58:11;;;;;;;18.88;9.52;;;;;;;;;;5111717;28;20047;-40
2022/12/07 01:00:38;;;;;;;16.30;8.93;;;;;;;;;;5110905;28;20647;-40
2022/12/07 01:03:05;;;;;;;17.20;9.43;;;;;;;;;;5111697;28;20110;-40
2022/12/07 06:10:32;;;;;;;13.52;7.07;;;;;;;;;;5087089;28;20552;-41
2022/12/07 06:12:59;;;;;;;15.32;7.82;;;;;;;;;;5087723;28;20127;-41
2022/12/07 06:15:26;;;;;;;14.52;7.35;;;;;;;;;;5087891;28;20027;-41
2022/12/07 06:17:53;;;;;;;13.20;6.53;;;;;;;;;;5087940;28;20101;-41
2022/12/07 06:20:19;;;;;;;12.98;6.47;;;;;;;;;;5088375;28;20032;-41
2022/12/07 06:22:45;;;;;;;13.35;6.43;;;;;;;;;;5088016;28;20107;-41
2022/12/07 06:25:11;;;;;;;12.50;6.75;;;;;;;;;;5090854;28;20055;-41
2022/12/07 06:27:37;;;;;;;10.45;5.72;;;;;;;;;;5099019;28;20422;-41
2022/12/07 06:30:06;;;;;;;11.13;5.93;;;;;;;;;;5109563;28;20493;-40
2022/12/07 06:32:33;;;;;;;11.63;6.07;;;;;;;;;;5109386;28;20110;-40
2022/12/07 06:34:59;;;;;;;11.65;6.40;;;;;;;;;;5083805;28;20061;-41
2022/12/07 06:37:25;;;;;;;14.85;7.35;;;;;;;;;;5107231;28;20031;-41
2022/12/07 06:39:52;;;;;;;9.77;5.72;;;;;;;;;;5110527;27;20688;-41
2022/12/07 06:42:18;;;;;;;11.25;6.00;;;;;;;;;;5089654;28;20384;-41
2022/12/07 06:44:44;;;;;;;10.93;5.85;;;;;;;;;;5088651;28;20495;-41
2022/12/07 06:47:11;;;;;;;10.73;5.82;;;;;;;;;;5089209;28;20058;-41
2022/12/07 06:49:37;;;;;;;12.90;5.95;;;;;;;;;;5088815;28;20607;-41
2022/12/07 06:52:04;;;;;;;10.77;6.05;;;;;;;;;;5088744;28;20032;-41
2022/12/07 06:54:30;;;;;;;10.25;5.40;;;;;;;;;;5088807;28;20021;-41
2022/12/07 06:56:56;;;;;;;10.45;5.40;;;;;;;;;;5106389;28;20031;-41
2022/12/07 06:59:23;;;;;;;23.20;11.63;;;;;;;;;;5109159;28;20812;-41
2022/12/07 07:01:49;;;;;;;23.00;11.93;;;;;;;;;;5107725;28;20035;-41
2022/12/07 07:04:15;;;;;;;23.85;11.43;;;;;;;;;;5109019;28;20051;-41
2022/12/07 07:06:41;;;;;;;18.92;9.60;;;;;;;;;;5106242;28;20039;-41
2022/12/07 07:09:09;;;;;;;18.60;9.50;;;;;;;;;;5108955;28;20015;-41
2022/12/07 07:11:35;;;;;;;17.38;8.88;;;;;;;;;;5108942;28;20052;-41
2022/12/07 07:14:02;;;;;;;16.02;8.77;;;;;;;;;;5107505;28;20039;-41
2022/12/07 07:16:30;;;;;;;13.85;7.13;;;;;;;;;;5108929;28;20027;-41
2022/12/07 07:18:56;;;;;;;13.75;7.45;;;;;;;;;;5110105;27;20080;-41
2022/12/07 07:21:22;;;;;;;16.45;7.97;;;;;;;;;;5099828;28;20038;-41
2022/12/07 07:23:48;;;;;;;13.38;6.85;;;;;;;;;;5108993;28;20024;-41
2022/12/07 07:26:14;;;;;;;14.10;7.35;;;;;;;;;;5107789;28;20036;-41
2022/12/07 07:28:40;;;;;;;15.50;7.47;;;;;;;;;;5105204;28;20028;-41
2022/12/07 07:31:07;;;;;;;11.95;6.63;;;;;;;;;;5107379;28;20088;-41
2022/12/07 07:33:33;;;;;;;10.45;6.22;;;;;;;;;;5107381;28;20108;-41
2022/12/07 07:36:00;;;;;;;12.18;6.47;;;;;;;;;;5099785;28;20105;-41
2022/12/07 07:38:26;;;;;;;13.65;6.22;;;;;;;;;;5097934;28;20098;-40
2022/12/07 07:40:52;;;;;;;11.27;5.57;;;;;;;;;;5105967;28;20111;-41
2022/12/07 07:43:19;;;;;;;12.23;6.38;;;;;;;;;;5109003;28;20035;-41
2022/12/07 07:45:45;;;;;;;9.35;5.47;;;;;;;;;;5105908;28;20099;-41
2022/12/07 07:48:11;;;;;;;10.10;5.47;;;;;;;;;;5105284;28;20032;-41
2022/12/07 07:50:37;;;;;;;9.10;5.35;;;;;;;;;;5106915;28;20069;-41
2022/12/07 07:53:03;;;;;;;7.47;5.00;;;;;;;;;;5103433;28;20115;-41
2022/12/07 07:55:29;;;;;;;9.32;5.50;;;;;;;;;;5104507;28;20476;-41
2022/12/07 07:57:55;;;;;;;8.98;5.53;;;;;;;;;;5103043;28;20027;-41
2022/12/07 08:00:21;;;;;;;8.98;5.40;;;;;;;;;;5083578;28;20498;-41
2022/12/07 08:02:48;;;;;;;9.02;5.32;;;;;;;;;;5100991;28;20031;-41
2022/12/07 08:05:16;;;;;;;8.02;4.90;;;;;;;;;;5104341;28;20026;-41
2022/12/07 08:07:43;;;;;;;8.60;5.25;;;;;;;;;;5113442;28;20043;-41
2022/12/07 08:10:10;;;;;;;8.27;4.93;;;;;;;;;;5106129;28;20421;-43
2022/12/07 08:12:37;;;;;;;8.45;5.18;;;;;;;;;;5102370;28;20538;-40
2022/12/07 08:15:23;;;;;;;8.63;5.32;;;;;;;;;;5095789;28;20074;-41
2022/12/07 08:17:49;;;;;;;8.38;5.60;;;;;;;;;;5105455;28;20038;-41
2022/12/07 08:20:15;;;;;;;8.75;5.82;;;;;;;;;;5094227;28;20482;-41
2022/12/07 08:22:41;;;;;;;8.38;5.30;;;;;;;;;;5106955;28;20032;-41
2022/12/07 08:25:08;;;;;;;8.93;5.43;;;;;;;;;;5101269;28;20058;-41
2022/12/07 08:27:34;;;;;;;10.40;5.88;;;;;;;;;;5092396;28;20035;-41
2022/12/07 08:30:01;;;;;;;9.25;5.75;;;;;;;;;;5100936;28;20406;-41
2022/12/07 08:32:27;;;;;;;9.25;5.60;;;;;;;;;;5088282;28;20651;-41
2022/12/07 08:34:53;;;;;;;8.90;5.43;;;;;;;;;;5108205;28;20082;-41
2022/12/07 08:37:19;;;;;;;8.57;5.13;;;;;;;;;;5088082;28;20103;-41
2022/12/07 08:39:45;;;;;;;7.78;5.05;;;;;;;;;;5090036;28;20513;-41
2022/12/07 08:42:11;;;;;;;8.55;5.65;;;;;;;;;;5102035;28;20100;-41
2022/12/07 08:44:37;;;;;;;11.30;6.50;;;;;;;;;;5109254;28;20024;-41
2022/12/07 08:47:06;;;;;;;9.20;6.03;;;;;;;;;;5085390;28;20511;-41
2022/12/07 08:49:36;;;;;;;9.70;5.70;;;;;;;;;;5098392;28;20049;-41
2022/12/07 08:52:05;;;;;;;9.50;5.47;;;;;;;;;;5099189;28;20062;-41
2022/12/07 08:54:32;;;;;;;10.18;5.75;;;;;;;;;;5105246;28;20062;-41
2022/12/07 08:56:58;;;;;;;9.35;5.50;;;;;;;;;;5111153;28;20102;-41
2022/12/07 08:59:24;;;;;;;9.02;5.55;;;;;;;;;;5100097;28;20096;-41
2022/12/07 09:01:50;;;;;;;8.45;5.38;;;;;;;;;;5079935;28;20123;-41
2022/12/07 09:04:16;;;;;;;9.32;5.88;;;;;;;;;;5077417;28;20028;-41
2022/12/07 09:06:42;;;;;;;8.90;5.80;;;;;;;;;;5099062;28;20523;-42
2022/12/07 09:09:09;;;;;;;7.43;5.05;;;;;;;;;;5098323;28;20024;-41
2022/12/07 09:11:35;;;;;;;9.23;5.18;;;;;;;;;;5112143;28;20024;-41
2022/12/07 09:14:01;;;;;;;8.07;5.15;;;;;;;;;;5111803;28;20031;-41
2022/12/07 09:16:28;;;;;;;8.77;5.10;;;;;;;;;;5109386;28;20095;-41
2022/12/07 09:18:54;;;;;;;10.27;6.35;;;;;;;;;;5111709;28;20035;-41
2022/12/07 09:21:20;;;;;;;11.00;6.25;;;;;;;;;;5108816;28;20094;-41
2022/12/07 09:23:46;;;;;;;9.90;6.15;;;;;;;;;;5111349;28;20372;-41
2022/12/07 09:26:12;;;;;;;9.10;5.78;;;;;;;;;;5109113;28;20526;-41
2022/12/07 09:28:38;;;;;;;11.60;6.47;;;;;;;;;;5110898;28;20534;-41
2022/12/07 09:31:05;;;;;;;10.93;6.35;;;;;;;;;;5097769;28;20039;-41
2022/12/07 09:33:32;;;;;;;10.93;6.80;;;;;;;;;;5091266;28;20479;-41
2022/12/07 09:35:58;;;;;;;11.38;6.63;;;;;;;;;;5107150;28;20050;-41
2022/12/07 09:38:26;;;;;;;10.95;6.30;;;;;;;;;;5096882;28;20675;-42
2022/12/07 09:40:52;;;;;;;11.45;6.43;;;;;;;;;;5098322;28;20031;-41
2022/12/07 09:43:23;;;;;;;10.30;6.38;;;;;;;;;;5108909;28;20375;-41
2022/12/07 09:45:53;;;;;;;9.13;5.63;;;;;;;;;;5110131;28;20032;-41
2022/12/07 09:48:25;;;;;;;9.77;6.05;;;;;;;;;;5091843;28;20030;-41
2022/12/07 09:50:55;;;;;;;10.50;6.43;;;;;;;;;;5109768;28;20062;-41
2022/12/07 09:53:28;;;;;;;11.70;7.10;;;;;;;;;;5110141;28;20030;-41
2022/12/07 09:55:56;;;;;;;10.48;6.47;;;;;;;;;;5099394;28;20075;-41
2022/12/07 09:58:28;;;;;;;9.70;6.65;;;;;;;;;;5089560;28;20509;-41
2022/12/07 10:00:59;;;;;;;12.23;7.05;;;;;;;;;;5107014;28;20046;-40
2022/12/07 10:03:27;;;;;;;11.30;6.68;;;;;;;;;;5109505;28;20032;-41
2022/12/07 10:05:53;;;;;;;10.40;6.50;;;;;;;;;;5100830;28;20031;-41
2022/12/07 10:08:20;;;;;;;11.18;6.80;;;;;;;;;;5111313;27;20114;-41
2022/12/07 10:10:49;;;;;;;9.07;5.70;;;;;;;;;;5109377;28;20027;-41
2022/12/07 10:13:19;;;;;;;11.10;6.53;;;;;;;;;;5102721;27;20027;-41
2022/12/07 10:15:55;;;;;;;10.75;7.05;;;;;;;;;;5086633;28;20175;-41
2022/12/07 10:18:27;;;;;;;10.27;6.47;;;;;;;;;;5088926;28;20453;-41
2022/12/07 10:21:07;;;;;;;10.50;6.78;;;;;;;;;;5087088;28;20034;-41
2022/12/07 10:23:33;;;;;;;12.02;7.28;;;;;;;;;;5086494;28;20061;-41
2022/12/07 10:25:59;;;;;;;12.93;7.35;;;;;;;;;;5084637;28;20075;-41
2022/12/07 10:28:33;;;;;;;13.70;7.30;;;;;;;;;;5088644;28;20055;-41
2022/12/07 10:30:59;;;;;;;;;;;;;;;;;;5089072;28;20031;-41
2022/12/07 10:33:29;;;;;;;18.02;9.80;;;;;;;;;;5086295;28;19916;-41
2022/12/07 10:35:55;;;;;;;17.45;8.93;;;;;;;;;;5088075;28;20032;-41
2022/12/07 10:38:22;;;;;;;15.38;8.23;;;;;;;;;;5085145;28;20028;-41
2022/12/07 10:41:02;;;;;;;13.30;7.82;;;;;;;;;;5066790;28;20158;-42
2022/12/07 10:43:29;;;;;;;16.08;8.70;;;;;;;;;;5067670;28;20504;-41
2022/12/07 10:46:21;;;;;;;11.98;7.55;;;;;;;;;;5067584;28;20457;-41
2022/12/07 10:48:50;;;;;;;13.02;7.22;;;;;;;;;;5067821;28;20460;-41
2022/12/07 10:51:44;;;;;;;10.52;6.60;;;;;;;;;;5095070;28;20027;-41
2022/12/07 10:54:22;;;;;;;12.45;6.80;;;;;;;;;;5087943;28;20059;-42
2022/12/07 10:57:06;;;;;;;10.95;6.07;;;;;;;;;;5069242;28;20025;-41
2022/12/07 10:59:32;;;;;;;;;;;;;;;;;;5074692;28;20106;-41
2022/12/07 11:02:17;;;;;;;10.48;6.50;;;;;;;;;;5087678;28;19990;-41
2022/12/07 11:04:43;;;;;;;11.02;6.30;;;;;;;;;;5082874;28;20056;-41
2022/12/07 11:07:29;;;;;;;12.60;7.35;;;;;;;;;;5071354;28;20064;-41
2022/12/07 11:09:57;;;;;;;10.70;6.28;;;;;;;;;;5078746;28;20035;-41
2022/12/07 11:12:36;;;;;;;12.70;7.03;;;;;;;;;;5091141;28;20036;-41
2022/12/07 11:15:04;;;;;;;10.13;5.88;;;;;;;;;;5107757;28;20114;-41
2022/12/07 11:17:54;;;;;;;10.80;6.55;;;;;;;;;;5107197;28;20448;-41
2022/12/07 11:20:30;;;;;;;10.18;6.22;;;;;;;;;;5097571;28;20455;-41
2022/12/07 11:23:13;;;;;;;9.98;5.85;;;;;;;;;;5107518;28;20036;-41
2022/12/07 11:25:42;;;;;;;10.13;6.25;;;;;;;;;;5104149;28;20104;-41
2022/12/07 11:28:11;;;;;;;9.95;6.05;;;;;;;;;;5069570;28;20056;-41
2022/12/07 11:30:47;;;;;;;10.45;5.60;;;;;;;;;;5095388;28;20494;-41
2022/12/07 11:33:19;;;;;;;9.13;5.70;;;;;;;;;;5107823;28;20035;-41
2022/12/07 11:35:54;;;;;;;9.13;5.88;;;;;;;;;;5107839;28;20034;-43
2022/12/07 11:38:23;;;;;;;9.23;6.10;;;;;;;;;;5108210;28;20101;-41
2022/12/07 11:40:50;;;;;;;9.13;5.75;;;;;;;;;;5095376;28;20059;-41
2022/12/07 11:43:25;;;;;;;11.85;7.30;;;;;;;;;;5101290;28;20035;-42
2022/12/07 11:46:00;;;;;;;10.63;6.07;;;;;;;;;;5108863;28;20035;-42
2022/12/07 11:48:35;;;;;;;10.05;5.88;;;;;;;;;;5104064;28;20439;-42
2022/12/07 11:57:14;;;;;;;10.15;6.13;;;;;;;;;;5122034;27;20076;-42
2022/12/07 11:59:44;;;;;;;9.43;5.65;;;;;;;;;;5128653;27;20608;-41
2022/12/07 12:02:14;;;;;;;9.10;5.55;;;;;;;;;;5104258;27;20023;-42
2022/12/07 12:05:13;;;;;;;9.52;5.95;;;;;;;;;;5109173;27;20031;-41
2022/12/07 12:07:39;;;;;;;9.50;5.50;;;;;;;;;;5064673;28;20386;-41
2022/12/07 12:10:14;;;;;;;7.90;5.03;;;;;;;;;;5108092;28;20036;-41
2022/12/07 12:13:05;;;;;;;8.07;5.30;;;;;;;;;;5103847;28;20030;-40
2022/12/07 12:16:00;;;;;;;9.32;5.60;;;;;;;;;;5109935;27;20478;-40
2022/12/07 12:18:35;;;;;;;8.98;5.05;;;;;;;;;;5018607;28;20037;-40
2022/12/07 12:21:04;;;;;;;7.93;5.50;;;;;;;;;;5107265;28;20040;-40
2022/12/07 12:23:43;;;;;;;8.82;5.53;;;;;;;;;;5091296;28;20027;-41
2022/12/07 12:26:19;;;;;;;7.90;5.60;;;;;;;;;;5102598;28;20028;-40
2022/12/07 12:28:53;;;;;;;9.20;6.05;;;;;;;;;;5109951;28;20019;-40
2022/12/07 12:31:22;;;;;;;8.57;6.32;;;;;;;;;;5110209;28;20028;-40
2022/12/07 12:33:56;;;;;;;9.70;5.75;;;;;;;;;;5107381;28;20039;-40
2022/12/07 12:36:25;;;;;;;11.15;5.85;;;;;;;;;;5103011;28;20036;-40
2022/12/07 12:39:14;;;;;;;10.40;5.68;;;;;;;;;;5107689;28;20035;-40
2022/12/07 12:44:15;;;;;;;8.45;5.53;;;;;;;;;;5107741;28;20024;-40
2022/12/07 12:46:49;;;;;;;8.68;5.47;;;;;;;;;;5104239;27;20020;-40
2022/12/07 12:49:19;;;;;;;10.40;6.57;;;;;;;;;;5110505;28;20019;-40
2022/12/07 12:51:55;;;;;;;11.27;5.88;;;;;;;;;;5109466;27;20406;-40
2022/12/07 12:54:21;;;;;;;9.00;5.85;;;;;;;;;;5110496;28;20027;-40
2022/12/07 12:57:02;;;;;;;10.60;5.85;;;;;;;;;;5107723;28;20019;-40
2022/12/07 12:59:31;;;;;;;8.55;5.57;;;;;;;;;;5106723;28;20031;-40
2022/12/07 13:02:09;;;;;;;8.18;5.22;;;;;;;;;;5097585;28;20028;-40
2022/12/07 13:04:56;;;;;;;7.93;5.50;;;;;;;;;;5101517;28;20107;-40
2022/12/07 13:07:41;;;;;;;8.30;4.90;;;;;;;;;;5096713;28;20034;-40
2022/12/07 13:10:22;;;;;;;9.40;5.38;;;;;;;;;;5111478;28;20059;-41
2022/12/07 13:13:07;;;;;;;8.45;5.20;;;;;;;;;;5109083;28;20848;-40
2022/12/07 13:15:43;;;;;;;9.13;5.15;;;;;;;;;;5095976;28;20033;-40
2022/12/07 13:18:28;;;;;;;8.23;5.05;;;;;;;;;;5090237;28;20032;-40
2022/12/07 13:20:55;;;;;;;8.45;5.20;;;;;;;;;;5110893;27;20030;-40
2022/12/07 13:23:26;;;;;;;6.80;4.78;;;;;;;;;;5112437;27;20027;-40
2022/12/07 13:25:55;;;;;;;9.15;5.47;;;;;;;;;;5105327;28;20032;-40
2022/12/07 13:28:26;;;;;;;7.93;4.45;;;;;;;;;;5094419;28;20024;-40
2022/12/07 13:31:11;;;;;;;8.10;4.93;;;;;;;;;;5102932;28;20027;-40
2022/12/07 13:33:37;;;;;;;6.43;4.35;;;;;;;;;;5105323;28;20106;-40
2022/12/07 13:36:03;;;;;;;7.18;4.72;;;;;;;;;;5096780;28;20409;-40
2022/12/07 13:38:35;;;;;;;7.53;4.78;;;;;;;;;;5104636;28;20110;-40
2022/12/07 13:41:04;;;;;;;6.97;4.35;;;;;;;;;;5091688;28;20047;-40
2022/12/07 13:43:30;;;;;;;6.30;4.28;;;;;;;;;;5099971;28;20028;-40
2022/12/07 13:45:57;;;;;;;6.60;4.63;;;;;;;;;;5092922;28;20032;-40
2022/12/07 13:48:42;;;;;;;7.40;4.97;;;;;;;;;;5089583;28;20659;-40
2022/12/07 13:51:16;;;;;;;6.32;3.80;;;;;;;;;;5091858;28;20106;-40
2022/12/07 13:53:49;;;;;;;6.88;4.40;;;;;;;;;;5087640;28;20513;-40
2022/12/07 13:56:15;;;;;;;6.95;4.38;;;;;;;;;;5104027;28;20020;-40
2022/12/07 13:58:42;;;;;;;6.60;4.00;;;;;;;;;;5108857;28;20077;-40
2022/12/07 14:01:08;;;;;;;7.15;4.38;;;;;;;;;;5108491;28;20115;-40
2022/12/07 14:03:36;;;;;;;7.95;4.90;;;;;;;;;;5109547;28;20424;-40
2022/12/07 14:06:25;;;;;;;8.10;4.53;;;;;;;;;;5108614;28;20102;-40
2022/12/07 14:08:51;;;;;;;9.43;5.15;;;;;;;;;;5106988;28;20073;-40
2022/12/07 14:11:21;;;;;;;13.85;6.53;;;;;;;;;;5098245;28;20016;-40
2022/12/07 14:13:53;;;;;;;21.02;9.20;;;;;;;;;;5107951;28;20046;-40
2022/12/07 14:16:37;;;;;;;23.48;10.32;;;;;;;;;;5090375;28;20035;-40
2022/12/07 14:19:05;;;;;;;22.48;10.20;;;;;;;;;;5101308;28;20040;-40
2022/12/07 14:21:32;;;;;;;21.67;10.00;;;;;;;;;;5099389;28;20015;-40
2022/12/07 14:24:19;;;;;;;20.35;9.20;;;;;;;;;;5109037;28;20038;-40
2022/12/07 14:26:46;;;;;;;26.73;11.95;;;;;;;;;;5109123;28;20024;-40
2022/12/07 14:29:30;;;;;;;30.85;13.48;;;;;;;;;;5109022;28;20472;-40
2022/12/07 14:31:57;;;;;;;24.90;11.25;;;;;;;;;;5109148;28;20024;-40
2022/12/07 14:34:24;;;;;;;30.35;13.25;;;;;;;;;;5091815;28;20119;-40
2022/12/07 14:36:50;;;;;;;31.88;12.82;;;;;;;;;;5090174;28;20027;-40
2022/12/07 14:39:16;;;;;;;32.65;14.35;;;;;;;;;;5095945;27;20100;-40
2022/12/07 14:41:51;;;;;;;31.50;13.45;;;;;;;;;;5108017;28;20492;-40
2022/12/07 14:44:19;;;;;;;34.33;14.23;;;;;;;;;;5108416;28;20027;-40
2022/12/07 14:46:45;;;;;;;30.08;12.98;;;;;;;;;;5108640;28;20030;-40
2022/12/07 14:49:11;;;;;;;32.70;14.32;;;;;;;;;;5108095;28;20024;-40
2022/12/07 14:51:39;;;;;;;27.27;12.68;;;;;;;;;;5108668;28;20471;-40
2022/12/07 14:54:07;;;;;;;22.67;10.77;;;;;;;;;;5105569;28;20134;-40
2022/12/07 14:56:33;;;;;;;24.25;12.13;;;;;;;;;;5106697;28;20023;-40
2022/12/07 14:58:59;;;;;;;34.53;15.85;;;;;;;;;;5108161;28;20040;-40
2022/12/07 15:01:25;;;;;;;35.53;15.88;;;;;;;;;;5108528;28;20519;-40
2022/12/07 15:03:51;;;;;;;35.50;15.80;;;;;;;;;;5108309;28;20532;-40
2022/12/07 15:06:18;;;;;;;31.63;15.02;;;;;;;;;;5096166;28;20092;-40
2022/12/07 15:08:44;;;;;;;30.13;13.60;;;;;;;;;;5107183;28;20027;-40
2022/12/07 15:11:14;;;;;;;21.83;11.07;;;;;;;;;;5096994;28;20024;-40
2022/12/07 15:16:25;;;;;;;27.38;13.65;;;;;;;;;;5108231;28;20081;-39
2022/12/07 15:18:51;;;;;;;31.52;14.23;;;;;;;;;;5090439;28;20119;-40
2022/12/07 15:21:17;;;;;;;32.50;15.50;;;;;;;;;;5108552;28;20023;-40
2022/12/07 15:23:43;;;;;;;31.23;14.80;;;;;;;;;;5108402;28;20485;-39
2022/12/07 15:26:12;;;;;;;28.25;13.90;;;;;;;;;;5100874;28;20573;-39
2022/12/07 15:28:38;;;;;;;25.38;12.98;;;;;;;;;;5094076;28;20024;-40
2022/12/07 15:31:04;;;;;;;17.55;10.07;;;;;;;;;;5108370;28;20034;-40
2022/12/07 15:33:30;;;;;;;19.02;10.30;;;;;;;;;;5108227;28;20024;-40
2022/12/07 15:35:59;;;;;;;16.00;8.95;;;;;;;;;;5107971;28;20020;-40
2022/12/07 15:38:27;;;;;;;13.52;7.47;;;;;;;;;;5108262;28;20032;-40
2022/12/07 15:40:53;;;;;;;13.60;7.93;;;;;;;;;;5106536;28;20027;-39
2022/12/07 15:46:04;;;;;;;11.70;7.13;;;;;;;;;;5087904;28;20128;-40
2022/12/07 15:48:30;;;;;;;14.52;8.02;;;;;;;;;;5093903;28;20110;-40
2022/12/07 15:51:03;;;;;;;15.52;8.77;;;;;;;;;;5106642;28;20527;-40
2022/12/07 15:53:29;;;;;;;16.20;9.45;;;;;;;;;;5096469;28;20462;-51
2022/12/07 15:55:55;;;;;;;16.38;8.70;;;;;;;;;;5088001;28;20507;-50
2022/12/07 15:58:21;;;;;;;12.48;8.02;;;;;;;;;;5087482;28;20495;-49
2022/12/07 16:00:47;;;;;;;10.88;6.95;;;;;;;;;;5087177;28;20028;-52
2022/12/07 16:03:14;;;;;;;10.30;6.78;;;;;;;;;;5084914;28;20105;-49
2022/12/07 16:05:41;;;;;;;11.60;7.00;;;;;;;;;;5086009;28;20028;-49
2022/12/07 16:08:07;;;;;;;10.02;6.57;;;;;;;;;;5086111;28;20028;-51
2022/12/07 16:10:33;;;;;;;10.15;6.65;;;;;;;;;;5085869;28;20039;-50
2022/12/07 16:12:59;;;;;;;9.55;6.15;;;;;;;;;;5086178;28;20476;-52
2022/12/07 16:15:26;;;;;;;9.85;6.53;;;;;;;;;;5086283;28;20032;-49
2022/12/07 16:17:53;;;;;;;7.80;5.43;;;;;;;;;;5086060;28;20100;-51
2022/12/07 16:20:19;;;;;;;12.38;7.03;;;;;;;;;;5086058;28;20028;-52
2022/12/07 16:22:45;;;;;;;14.73;8.38;;;;;;;;;;5067946;28;20111;-51
2022/12/07 16:25:11;;;;;;;15.82;9.20;;;;;;;;;;5085830;28;20099;-50
2022/12/07 16:27:37;;;;;;;15.77;9.48;;;;;;;;;;5086359;28;20081;-49
2022/12/07 16:30:03;;;;;;;15.95;9.13;;;;;;;;;;5087196;28;20027;-52
2022/12/07 16:32:30;;;;;;;17.42;9.13;;;;;;;;;;5071259;28;20078;-50
2022/12/07 16:34:56;;;;;;;16.10;8.90;;;;;;;;;;5089565;28;20051;-50
2022/12/07 16:37:22;;;;;;;13.43;7.63;;;;;;;;;;5089765;28;20403;-50
2022/12/07 16:39:48;;;;;;;12.95;7.85;;;;;;;;;;5089383;28;20052;-50
2022/12/07 16:42:14;;;;;;;15.23;9.00;;;;;;;;;;5089430;28;20024;-51
2022/12/07 16:44:41;;;;;;;11.90;7.65;;;;;;;;;;5089470;28;20027;-50
2022/12/07 16:47:08;;;;;;;14.55;8.93;;;;;;;;;;5089788;28;20407;-51
2022/12/07 16:49:34;;;;;;;13.95;8.63;;;;;;;;;;5089591;28;20115;-49
2022/12/07 16:52:00;;;;;;;14.10;8.93;;;;;;;;;;5089535;28;20146;-52
2022/12/07 16:54:30;;;;;;;12.77;7.70;;;;;;;;;;5089198;28;20403;-52
2022/12/07 16:56:56;;;;;;;13.93;8.15;;;;;;;;;;5089340;28;20440;-51
2022/12/07 16:59:23;;;;;;;14.02;7.70;;;;;;;;;;5088982;28;20032;-51
2022/12/07 17:01:51;;;;;;;14.43;6.93;;;;;;;;;;5089637;28;20509;-49
2022/12/07 17:04:17;;;;;;;11.75;7.00;;;;;;;;;;5089061;28;20404;-51
2022/12/07 17:06:44;;;;;;;10.50;6.22;;;;;;;;;;5089103;28;20420;-50
2022/12/07 17:09:11;;;;;;;8.75;5.95;;;;;;;;;;5088834;28;20388;-49
2022/12/07 17:11:38;;;;;;;9.88;5.75;;;;;;;;;;5089299;28;20062;-50
2022/12/07 17:16:50;;;;;;;9.43;5.65;;;;;;;;;;5088895;28;20166;-54
2022/12/07 17:19:17;;;;;;;7.70;5.22;;;;;;;;;;5088908;28;20107;-49
2022/12/07 17:21:43;;;;;;;9.02;5.40;;;;;;;;;;5089108;28;20024;-53
2022/12/07 17:24:11;;;;;;;9.65;6.03;;;;;;;;;;5088447;28;20038;-50
2022/12/07 17:26:39;;;;;;;9.50;5.75;;;;;;;;;;5088579;28;20028;-51
2022/12/07 17:29:08;;;;;;;8.43;5.03;;;;;;;;;;5088553;28;20035;-54
2022/12/07 17:31:35;;;;;;;8.88;5.40;;;;;;;;;;5089082;28;20530;-52
2022/12/07 17:34:01;;;;;;;9.20;4.90;;;;;;;;;;5088596;28;20510;-48
2022/12/07 17:36:29;;;;;;;9.25;5.20;;;;;;;;;;5070387;28;20024;-53
2022/12/07 17:38:57;;;;;;;7.78;5.00;;;;;;;;;;5088521;28;20839;-50
2022/12/07 17:44:10;;;;;;;8.50;5.10;;;;;;;;;;5088435;28;20085;-49
2022/12/07 17:46:37;;;;;;;7.70;4.72;;;;;;;;;;5088339;28;20165;-53
2022/12/07 17:49:04;;;;;;;9.75;5.05;;;;;;;;;;5088701;28;20024;-49
2022/12/07 17:54:14;;;;;;;8.98;5.28;;;;;;;;;;5088131;28;20615;-51
2022/12/07 17:56:40;;;;;;;12.85;7.13;;;;;;;;;;5088242;28;20031;-51
2022/12/07 17:59:07;;;;;;;14.35;7.35;;;;;;;;;;5087779;28;20050;-51
2022/12/07 18:01:35;;;;;;;16.05;8.70;;;;;;;;;;5088599;28;20016;-54
2022/12/07 18:04:02;;;;;;;20.08;10.38;;;;;;;;;;5088074;28;20113;-51
2022/12/07 18:06:28;;;;;;;30.08;13.68;;;;;;;;;;5087919;28;20028;-49
2022/12/07 18:08:54;;;;;;;28.15;13.80;;;;;;;;;;5087906;28;20073;-51
2022/12/07 18:11:21;;;;;;;27.55;13.13;;;;;;;;;;5088002;28;20020;-52
2022/12/07 18:13:46;;;;;;;35.67;16.70;;;;;;;;;;5087652;28;20213;-50
2022/12/07 18:16:15;;;;;;;33.95;15.07;;;;;;;;;;5090635;28;20146;-49
2022/12/07 18:18:42;;;;;;;31.13;15.48;;;;;;;;;;5093994;27;20030;-49
2022/12/07 18:21:12;;;;;;;31.70;15.75;;;;;;;;;;5092939;28;20391;-53
2022/12/07 18:23:38;;;;;;;33.53;17.17;;;;;;;;;;5102130;28;20055;-53
2022/12/07 18:26:05;;;;;;;34.95;18.08;;;;;;;;;;5104830;28;20047;-50
2022/12/07 18:28:31;;;;;;;34.75;18.38;;;;;;;;;;5089312;28;20028;-51
2022/12/07 18:30:57;;;;;;;30.05;15.77;;;;;;;;;;5088721;28;20020;-41
2022/12/07 18:33:23;;;;;;;25.08;13.60;;;;;;;;;;5088840;28;20035;-40
2022/12/07 18:35:49;;;;;;;26.38;13.85;;;;;;;;;;5102850;28;20769;-40
2022/12/07 18:38:16;;;;;;;25.05;12.85;;;;;;;;;;5106295;28;20027;-40
2022/12/07 18:40:42;;;;;;;21.70;12.05;;;;;;;;;;5104102;28;20062;-40
2022/12/07 18:43:09;;;;;;;21.02;11.77;;;;;;;;;;5076295;28;20229;-40
2022/12/07 18:45:39;;;;;;;17.88;10.77;;;;;;;;;;5105339;28;20058;-55
2022/12/07 18:48:05;;;;;;;22.10;12.15;;;;;;;;;;5107579;27;20027;-51
2022/12/07 18:50:31;;;;;;;20.30;10.27;;;;;;;;;;5106265;28;20032;-54
2022/12/07 18:52:58;;;;;;;17.33;10.65;;;;;;;;;;5105002;28;20027;-54
2022/12/07 18:55:25;;;;;;;17.70;10.43;;;;;;;;;;5105934;28;20034;-54
2022/12/07 18:57:52;;;;;;;17.08;9.35;;;;;;;;;;5103578;28;20027;-53
2022/12/07 19:00:18;;;;;;;15.63;9.65;;;;;;;;;;5105961;28;20110;-54
2022/12/07 19:02:44;;;;;;;18.90;11.68;;;;;;;;;;5106084;28;20027;-54
2022/12/07 19:05:10;;;;;;;17.33;11.50;;;;;;;;;;5081763;28;20027;-51
2022/12/07 19:07:37;;;;;;;16.40;10.25;;;;;;;;;;5090724;28;20024;-51
2022/12/07 19:10:03;;;;;;;15.07;9.20;;;;;;;;;;5087361;28;20024;-53
2022/12/07 19:12:29;;;;;;;13.75;8.77;;;;;;;;;;5105680;28;20126;-54
2022/12/07 19:14:55;;;;;;;13.10;7.72;;;;;;;;;;5099787;28;20119;-54
2022/12/07 19:17:22;;;;;;;12.73;8.15;;;;;;;;;;5085671;28;20032;-40
2022/12/07 19:19:48;;;;;;;14.18;8.00;;;;;;;;;;5067542;28;20490;-40
2022/12/07 19:22:17;;;;;;;14.15;8.55;;;;;;;;;;5084964;28;20027;-40
2022/12/07 19:24:47;;;;;;;12.05;7.45;;;;;;;;;;5084945;28;20040;-40
2022/12/07 19:27:13;;;;;;;11.65;7.15;;;;;;;;;;5085237;28;20073;-40
2022/12/07 19:29:40;;;;;;;12.65;7.72;;;;;;;;;;5085519;28;20284;-39
2022/12/07 19:32:10;;;;;;;11.30;7.05;;;;;;;;;;5100658;28;20035;-39
2022/12/07 19:34:40;;;;;;;12.65;7.00;;;;;;;;;;5105539;28;20106;-39
2022/12/07 19:37:06;;;;;;;12.73;7.45;;;;;;;;;;5105646;28;20019;-40
2022/12/07 19:39:33;;;;;;;12.38;7.32;;;;;;;;;;5105892;28;20024;-39
2022/12/07 19:41:59;;;;;;;13.13;8.18;;;;;;;;;;5105537;28;20027;-39
2022/12/07 19:44:26;;;;;;;13.60;8.93;;;;;;;;;;5105456;28;20691;-39
2022/12/07 19:46:54;;;;;;;11.95;7.28;;;;;;;;;;5086905;28;20076;-39
2022/12/07 19:49:20;;;;;;;13.82;7.85;;;;;;;;;;5085026;28;20032;-40
2022/12/07 19:51:48;;;;;;;18.70;8.55;;;;;;;;;;5085252;28;20068;-39
2022/12/07 19:54:15;;;;;;;15.25;8.05;;;;;;;;;;5085024;28;20091;-40
2022/12/07 19:56:42;;;;;;;19.17;10.05;;;;;;;;;;5085182;28;20028;-40
2022/12/07 19:59:08;;;;;;;15.38;8.52;;;;;;;;;;5076037;28;20050;-39
2022/12/07 20:01:36;;;;;;;15.15;8.80;;;;;;;;;;5105967;28;20513;-39
2022/12/07 20:04:03;;;;;;;14.98;8.45;;;;;;;;;;5105219;28;20503;-39
2022/12/07 20:06:29;;;;;;;14.43;7.75;;;;;;;;;;5108759;28;20108;-39
2022/12/07 20:08:56;;;;;;;13.38;8.13;;;;;;;;;;5109250;28;20324;-39